createdAt,value
2022-11-12T05:00:57.142Z,14.80
2022-11-12T05:16:20.173Z,14.80
2022-11-12T05:31:43.160Z,14.80
2022-11-12T05:47:06.190Z,14.80
2022-11-12T06:02:29.209Z,14.70
2022-11-12T06:17:52.099Z,14.70
2022-11-12T06:33:15.052Z,14.80
2022-11-12T06:48:38.150Z,14.60
2022-11-12T07:04:00.927Z,14.60
2022-11-12T07:19:24.018Z,14.50
2022-11-12T07:34:46.955Z,14.70
2022-11-12T07:50:10.842Z,14.60
2022-11-12T08:05:34.979Z,14.70
2022-11-12T08:21:01.470Z,14.80
2022-11-12T08:36:24.544Z,14.90
2022-11-12T08:51:47.524Z,15.00
2022-11-12T09:07:28.675Z,15.30
2022-11-12T09:22:53.902Z,15.50
2022-11-12T09:38:17.970Z,15.70
2022-11-12T09:53:48.403Z,15.90
2022-11-12T10:09:17.346Z,16.20
2022-11-12T10:24:42.762Z,16.60
2022-11-12T10:40:29.140Z,16.60
2022-11-12T10:55:59.416Z,17.00
2022-11-12T11:11:25.424Z,17.00
2022-11-12T11:26:59.026Z,17.40
2022-11-12T11:42:41.796Z,17.50
2022-11-12T11:58:15.957Z,17.60
2022-11-12T12:13:52.118Z,17.70
2022-11-12T12:29:18.404Z,17.70
2022-11-12T12:45:11.878Z,17.70
2022-11-12T13:00:38.896Z,17.60
2022-11-12T13:16:03.560Z,17.60
2022-11-12T13:31:30.594Z,17.70
2022-11-12T13:46:56.076Z,17.70
2022-11-12T14:02:23.949Z,17.80
2022-11-12T14:17:55.997Z,17.80
2022-11-12T14:33:22.208Z,18.00
2022-11-12T14:48:51.984Z,18.00
2022-11-12T15:04:25.822Z,18.00
2022-11-12T15:19:48.951Z,18.00
2022-11-12T15:35:33.601Z,17.90
2022-11-12T15:50:56.827Z,17.80
2022-11-12T16:06:19.879Z,17.70
2022-11-12T16:21:43.192Z,17.70
2022-11-12T16:37:06.163Z,17.60
2022-11-12T16:52:29.077Z,17.60
2022-11-12T17:07:56.908Z,17.50
2022-11-12T17:23:19.950Z,17.40
2022-11-12T17:38:43.465Z,17.40
2022-11-12T17:54:06.511Z,17.30
2022-11-12T18:09:29.365Z,17.30
2022-11-12T18:24:52.875Z,17.20
2022-11-12T18:40:16.454Z,17.10
2022-11-12T18:55:39.173Z,17.20
2022-11-12T19:11:03.748Z,16.90
2022-11-12T19:26:26.790Z,17.00
2022-11-12T19:41:49.955Z,16.90
2022-11-12T19:57:13.123Z,17.00
2022-11-12T20:12:36.569Z,16.90
2022-11-12T20:27:59.629Z,16.80
2022-11-12T20:43:26.558Z,16.70
2022-11-12T20:58:52.607Z,16.60
2022-11-12T21:14:15.769Z,16.70
2022-11-12T21:29:38.672Z,16.60
2022-11-12T21:45:01.627Z,16.60
